Time;durP1;ratioP1;P1;durP2;ratioP2;P2;SDS_P1;SDS_P2;PMS_P1;PMS_P2;Temp;Humidity;BMP_temperature;BMP_pressure;BME280_temperature;BME280_humidity;BME280_pressure;Samples;Min_cycle;Max_cycle;Signal;HPM_P1;HPM_P2
2022/09/21 00:01:23;;;;;;;2.08;1.35;;;10.10;99.90;;;;;;4950166;28;20031;-73
2022/09/21 00:04:02;;;;;;;1.52;1.10;;;10.00;99.90;;;;;;4949636;29;20490;-72
2022/09/21 00:06:31;;;;;;;13.80;2.00;;;10.00;99.90;;;;;;4950575;29;20036;-72
2022/09/21 00:08:57;;;;;;;3.65;1.80;;;10.00;99.90;;;;;;4949817;28;20539;-72
2022/09/21 00:11:27;;;;;;;3.95;1.50;;;10.00;99.90;;;;;;4934452;29;20027;-72
2022/09/21 00:13:59;;;;;;;6.00;1.88;;;10.00;99.90;;;;;;4949832;28;20090;-72
2022/09/21 00:16:26;;;;;;;2.88;1.98;;;10.00;99.90;;;;;;4949986;28;20042;-72
2022/09/21 00:18:51;;;;;;;2.00;1.40;;;10.00;99.90;;;;;;4935144;29;20083;-72
2022/09/21 00:21:18;;;;;;;4.18;1.85;;;10.00;99.90;;;;;;4935504;29;20432;-72
2022/09/21 00:23:44;;;;;;;3.88;1.67;;;9.90;99.90;;;;;;4934953;29;20104;-72
2022/09/21 00:26:14;;;;;;;9.00;2.15;;;9.90;99.90;;;;;;4935544;29;20035;-72
2022/09/21 00:28:41;;;;;;;3.95;1.92;;;10.00;99.90;;;;;;4949597;29;20388;-72
2022/09/21 00:31:11;;;;;;;4.95;2.70;;;9.90;99.90;;;;;;4949675;29;20046;-72
2022/09/21 00:33:42;;;;;;;1.38;0.70;;;9.70;99.90;;;;;;4934845;29;20031;-72
2022/09/21 00:36:15;;;;;;;4.38;2.30;;;9.40;99.90;;;;;;4950126;29;20031;-72
2022/09/21 00:38:41;;;;;;;1.17;1.05;;;9.20;99.90;;;;;;4949506;28;20042;-72
2022/09/21 00:41:09;;;;;;;3.72;1.48;;;9.00;99.90;;;;;;4935115;29;20035;-72
2022/09/21 00:43:41;;;;;;;3.47;1.20;;;8.80;99.90;;;;;;4949107;29;20078;-73
2022/09/21 00:46:26;;;;;;;2.70;1.30;;;8.70;99.90;;;;;;4949213;28;20106;-73
2022/09/21 00:48:52;;;;;;;2.17;1.40;;;8.60;99.90;;;;;;4934714;29;20547;-73
2022/09/21 00:51:18;;;;;;;7.70;1.50;;;8.60;99.90;;;;;;4949174;28;20035;-73
2022/09/21 00:53:46;;;;;;;2.58;1.60;;;8.60;99.90;;;;;;4949253;28;20459;-72
2022/09/21 00:56:14;;;;;;;3.15;1.58;;;8.60;99.90;;;;;;4949409;28;20099;-72
2022/09/21 00:58:47;;;;;;;8.25;2.15;;;8.60;99.90;;;;;;4949589;29;20027;-72
2022/09/21 01:01:17;;;;;;;4.20;1.80;;;8.70;99.90;;;;;;4934300;28;20400;-72
2022/09/21 01:03:48;;;;;;;3.50;1.58;;;8.90;99.90;;;;;;4948199;28;20028;-72
2022/09/21 01:06:17;;;;;;;7.90;2.20;;;8.90;99.90;;;;;;4957349;28;20042;-72
2022/09/21 01:08:46;;;;;;;3.58;1.95;;;9.00;99.90;;;;;;4947349;28;20047;-72
2022/09/21 01:11:58;;;;;;;3.15;1.50;;;9.00;99.90;;;;;;4967887;28;20105;-73
2022/09/21 01:14:26;;;;;;;2.13;1.13;;;8.90;99.90;;;;;;4952621;29;20388;-72
2022/09/21 01:17:11;;;;;;;3.30;1.40;;;8.60;99.90;;;;;;4948912;28;20039;-73
2022/09/21 01:19:58;;;;;;;2.75;1.60;;;8.50;99.90;;;;;;4933990;29;20027;-73
2022/09/21 01:23:08;;;;;;;2.85;1.65;;;8.30;99.90;;;;;;4933774;29;20035;-72
2022/09/21 01:26:05;;;;;;;1.33;0.93;;;8.40;99.90;;;;;;4934228;29;20401;-73
2022/09/21 01:29:22;;;;;;;1.95;1.23;;;8.50;99.90;;;;;;4933980;29;20036;-73
2022/09/21 01:32:13;;;;;;;2.55;1.15;;;8.20;99.90;;;;;;4933753;29;20039;-72
2022/09/21 01:34:49;;;;;;;3.30;1.70;;;8.20;99.90;;;;;;4948641;29;20086;-73
2022/09/21 01:37:23;;;;;;;9.27;3.13;;;8.20;99.90;;;;;;4948559;29;20027;-73
2022/09/21 01:39:55;;;;;;;3.45;1.67;;;8.10;99.90;;;;;;4933717;29;20036;-73
2022/09/21 01:42:25;;;;;;;2.72;1.92;;;8.00;99.90;;;;;;4966014;28;20031;-73
2022/09/21 01:44:50;;;;;;;5.15;1.80;;;8.00;99.90;;;;;;4967443;28;20120;-73
2022/09/21 01:47:17;;;;;;;3.67;1.67;;;7.90;99.90;;;;;;4967567;28;20127;-73
2022/09/21 01:49:52;;;;;;;2.28;1.75;;;8.00;99.90;;;;;;4967611;28;20032;-73
2022/09/21 01:52:25;;;;;;;9.63;2.13;;;8.10;99.90;;;;;;4967020;28;20043;-72
2022/09/21 01:55:12;;;;;;;2.53;1.33;;;8.20;99.90;;;;;;4952903;28;20027;-72
2022/09/21 01:57:58;;;;;;;3.33;2.30;;;8.20;99.90;;;;;;4952012;28;20039;-72
2022/09/21 02:00:25;;;;;;;4.30;1.83;;;8.10;99.90;;;;;;4966628;28;20107;-72
2022/09/21 02:03:20;;;;;;;5.80;1.92;;;8.00;99.90;;;;;;4967249;28;20090;-72
2022/09/21 02:05:46;;;;;;;9.63;1.80;;;8.00;99.90;;;;;;4951626;29;20031;-72
2022/09/21 02:08:12;;;;;;;2.28;1.33;;;8.10;99.90;;;;;;4966291;28;20400;-72
2022/09/21 02:10:51;;;;;;;2.60;1.35;;;8.20;99.90;;;;;;4967163;28;20046;-72
2022/09/21 02:13:20;;;;;;;1.83;1.20;;;8.20;99.90;;;;;;4967151;28;20118;-72
2022/09/21 02:16:33;;;;;;;2.17;1.50;;;8.20;99.90;;;;;;4958421;28;20031;-71
2022/09/21 02:19:23;;;;;;;2.33;1.38;;;8.00;99.90;;;;;;4952372;29;20035;-72
2022/09/21 02:22:13;;;;;;;9.85;2.17;;;8.10;99.90;;;;;;4952696;28;20073;-71
2022/09/21 02:24:54;;;;;;;12.13;2.50;;;8.20;99.90;;;;;;4952587;28;20039;-72
2022/09/21 02:28:19;;;;;;;3.78;1.95;;;8.30;99.90;;;;;;4952344;28;20027;-72
2022/09/21 02:30:59;;;;;;;2.88;1.67;;;8.40;99.90;;;;;;4939350;28;20413;-72
2022/09/21 02:33:40;;;;;;;3.22;1.73;;;8.10;99.90;;;;;;4951965;29;20042;-71
2022/09/21 02:36:14;;;;;;;7.85;1.80;;;8.10;99.90;;;;;;4951450;28;20038;-72
2022/09/21 02:39:35;;;;;;;3.45;1.73;;;8.20;99.90;;;;;;4951189;29;20039;-71
2022/09/21 02:42:20;;;;;;;7.80;1.47;;;8.20;99.90;;;;;;4921272;28;20071;-72
2022/09/21 02:44:55;;;;;;;2.28;1.40;;;7.80;99.90;;;;;;4952497;28;20287;-72
2022/09/21 02:47:50;;;;;;;2.05;1.50;;;7.80;99.90;;;;;;4950837;29;20491;-71
2022/09/21 02:50:24;;;;;;;5.57;2.47;;;7.70;99.90;;;;;;4951768;28;20039;-72
2022/09/21 02:52:53;;;;;;;2.17;0.85;;;7.90;99.90;;;;;;4950480;29;20027;-72
2022/09/21 02:55:18;;;;;;;2.25;1.38;;;7.90;99.90;;;;;;4950976;28;20043;-71
2022/09/21 02:57:46;;;;;;;3.63;1.60;;;8.10;99.90;;;;;;4951044;28;20043;-72
2022/09/21 03:00:15;;;;;;;6.95;2.35;;;8.00;99.90;;;;;;4950434;28;20023;-72
2022/09/21 03:02:44;;;;;;;2.33;1.60;;;7.90;99.90;;;;;;4950785;28;20059;-72
2022/09/21 03:05:13;;;;;;;2.95;1.50;;;7.90;99.90;;;;;;4951446;28;20046;-73
2022/09/21 03:07:39;;;;;;;4.47;2.00;;;7.90;99.90;;;;;;4952051;28;20487;-73
2022/09/21 03:10:08;;;;;;;3.45;2.03;;;7.80;99.90;;;;;;4954276;29;20039;-73
2022/09/21 03:12:34;;;;;;;2.03;1.67;;;7.90;99.90;;;;;;4954054;29;20086;-73
2022/09/21 03:14:59;;;;;;;2.53;1.48;;;7.90;99.90;;;;;;4954454;28;20035;-73
2022/09/21 03:17:26;;;;;;;11.10;2.10;;;7.90;99.90;;;;;;4955604;28;20031;-73
2022/09/21 03:19:53;;;;;;;5.55;1.77;;;8.00;99.90;;;;;;4954939;28;20023;-73
2022/09/21 03:22:23;;;;;;;2.58;1.48;;;8.10;99.90;;;;;;4953973;28;20419;-73
2022/09/21 03:24:49;;;;;;;1.88;1.38;;;8.20;99.90;;;;;;4954054;28;20035;-73
2022/09/21 03:27:20;;;;;;;2.40;1.65;;;8.20;99.90;;;;;;4954163;28;20059;-73
2022/09/21 03:29:46;;;;;;;3.40;1.38;;;8.20;99.90;;;;;;4954069;28;20038;-73
2022/09/21 03:32:13;;;;;;;3.05;1.52;;;8.00;99.90;;;;;;4953714;28;20023;-73
2022/09/21 03:34:39;;;;;;;3.20;1.73;;;7.90;99.90;;;;;;4953992;28;20078;-73
2022/09/21 03:37:07;;;;;;;5.10;2.35;;;7.80;99.90;;;;;;4955250;28;20019;-73
2022/09/21 03:39:33;;;;;;;15.30;1.85;;;7.80;99.90;;;;;;4953779;28;20140;-73
2022/09/21 03:41:59;;;;;;;3.08;1.52;;;7.90;99.90;;;;;;4953818;28;20031;-73
2022/09/21 03:44:25;;;;;;;2.70;1.40;;;8.00;99.90;;;;;;4955229;29;20122;-73
2022/09/21 03:46:52;;;;;;;3.33;1.58;;;7.90;99.90;;;;;;4955191;29;20114;-73
2022/09/21 03:49:18;;;;;;;3.17;1.35;;;8.00;99.90;;;;;;4954743;28;20031;-73
2022/09/21 03:51:44;;;;;;;1.33;1.23;;;8.00;99.90;;;;;;4953772;29;20038;-71
2022/09/21 03:54:11;;;;;;;2.17;1.48;;;8.10;99.90;;;;;;4953520;28;20035;-71
2022/09/21 03:56:37;;;;;;;4.00;1.48;;;8.00;99.90;;;;;;4955299;28;20027;-71
2022/09/21 03:59:03;;;;;;;3.25;1.50;;;8.10;99.90;;;;;;4953447;29;20487;-71
2022/09/21 04:01:29;;;;;;;3.88;1.88;;;7.90;99.90;;;;;;4953370;29;20038;-72
2022/09/21 04:03:54;;;;;;;4.45;1.55;;;8.00;99.90;;;;;;4875256;28;20127;-69
2022/09/21 04:06:20;;;;;;;2.88;1.48;;;7.90;99.90;;;;;;4949998;28;20074;-71
2022/09/21 04:08:46;;;;;;;2.90;1.67;;;7.90;99.90;;;;;;4933750;29;20067;-71
2022/09/21 04:11:17;;;;;;;3.25;1.73;;;7.90;99.90;;;;;;4954115;28;20085;-68
2022/09/21 04:13:47;;;;;;;2.33;1.60;;;7.80;99.90;;;;;;4955555;28;20027;-71
2022/09/21 04:16:13;;;;;;;4.05;2.53;;;7.70;99.90;;;;;;4948860;28;20035;-72
2022/09/21 04:18:39;;;;;;;1.60;1.40;;;7.50;99.90;;;;;;4945426;29;20035;-71
2022/09/21 04:21:05;;;;;;;6.05;1.70;;;7.30;99.90;;;;;;4960075;28;20030;-71
2022/09/21 04:23:31;;;;;;;2.85;1.25;;;7.20;99.90;;;;;;4958530;28;20133;-71
2022/09/21 04:25:58;;;;;;;1.45;1.13;;;7.30;99.90;;;;;;4949755;28;20035;-71
2022/09/21 04:28:24;;;;;;;2.85;2.38;;;7.40;99.90;;;;;;4944145;29;20031;-71
2022/09/21 04:30:54;;;;;;;12.80;6.43;;;7.70;99.90;;;;;;4943094;29;20500;-70
2022/09/21 04:33:21;;;;;;;27.77;14.18;;;8.30;99.90;;;;;;4942658;28;20042;-70
2022/09/21 04:35:47;;;;;;;3.80;2.65;;;8.80;99.90;;;;;;4944747;28;20027;-71
2022/09/21 04:38:12;;;;;;;13.50;5.95;;;8.60;99.90;;;;;;4934718;29;20038;-73
2022/09/21 04:40:38;;;;;;;30.20;12.50;;;8.40;99.90;;;;;;4965631;28;20077;-69
2022/09/21 04:43:05;;;;;;;9.82;3.38;;;7.70;99.90;;;;;;4972800;28;20128;-71
2022/09/21 04:45:31;;;;;;;4.70;2.38;;;7.80;99.90;;;;;;4973153;28;20639;-70
2022/09/21 04:47:57;;;;;;;12.90;4.18;;;7.70;99.90;;;;;;4971921;28;20046;-71
2022/09/21 04:50:22;;;;;;;3.67;2.15;;;7.40;99.90;;;;;;4971376;28;20403;-70
2022/09/21 04:52:48;;;;;;;31.77;11.57;;;7.60;99.90;;;;;;4972509;28;20042;-71
2022/09/21 04:55:14;;;;;;;13.68;3.70;;;7.40;99.90;;;;;;4972818;28;20058;-71
2022/09/21 04:57:40;;;;;;;2.55;1.92;;;7.40;99.90;;;;;;4972960;28;20023;-71
2022/09/21 05:00:06;;;;;;;7.47;2.15;;;7.40;99.90;;;;;;4972579;28;20062;-71
2022/09/21 05:02:32;;;;;;;3.20;2.00;;;7.40;99.90;;;;;;4972783;28;20185;-70
2022/09/21 05:04:58;;;;;;;4.07;1.52;;;7.40;99.90;;;;;;4972602;28;20759;-71
2022/09/21 05:07:26;;;;;;;5.25;1.38;;;7.50;99.90;;;;;;4972800;28;20043;-71
2022/09/21 05:10:03;;;;;;;4.10;1.75;;;7.50;99.90;;;;;;4970963;28;20045;-71
2022/09/21 05:12:31;;;;;;;5.88;2.25;;;7.60;99.90;;;;;;4972474;28;20031;-71
2022/09/21 05:14:57;;;;;;;5.40;1.45;;;7.60;99.90;;;;;;4966520;28;20384;-71
2022/09/21 05:17:23;;;;;;;2.78;2.00;;;7.60;99.90;;;;;;4953301;29;20488;-71
2022/09/21 05:19:50;;;;;;;3.25;2.35;;;7.60;99.90;;;;;;4952875;28;20031;-70
2022/09/21 05:22:16;;;;;;;2.42;1.65;;;7.60;99.90;;;;;;4952872;28;20035;-70
2022/09/21 05:24:42;;;;;;;1.85;1.30;;;7.60;99.90;;;;;;4951492;28;20369;-70
2022/09/21 05:27:08;;;;;;;5.63;1.88;;;7.70;99.90;;;;;;4952627;28;20035;-70
2022/09/21 05:29:34;;;;;;;3.40;2.13;;;7.60;99.90;;;;;;4952694;29;20043;-75
2022/09/21 05:32:19;;;;;;;3.20;1.70;;;7.50;99.90;;;;;;4951890;28;20483;-71
2022/09/21 05:35:12;;;;;;;4.60;2.55;;;7.50;99.90;;;;;;4952639;28;20097;-71
2022/09/21 05:37:47;;;;;;;2.80;1.63;;;7.50;99.90;;;;;;4952923;28;20779;-70
2022/09/21 05:40:14;;;;;;;3.75;1.85;;;7.30;99.90;;;;;;4954249;28;20633;-71
2022/09/21 05:42:40;;;;;;;4.85;1.83;;;7.40;99.90;;;;;;4970159;28;20450;-72
2022/09/21 05:45:08;;;;;;;2.22;1.60;;;7.50;99.90;;;;;;4970685;28;20027;-71
2022/09/21 05:47:56;;;;;;;5.97;2.90;;;7.60;99.90;;;;;;4969581;28;20408;-71
2022/09/21 05:50:54;;;;;;;1.85;1.58;;;7.60;99.90;;;;;;4970422;28;20517;-72
2022/09/21 05:53:26;;;;;;;4.70;2.53;;;7.70;99.90;;;;;;4970876;28;20035;-72
2022/09/21 05:56:02;;;;;;;6.70;1.88;;;7.70;99.90;;;;;;4971584;28;20480;-72
2022/09/21 05:59:29;;;;;;;7.50;1.80;;;7.70;99.90;;;;;;4947061;28;20101;-72
2022/09/21 06:02:09;;;;;;;3.08;1.90;;;7.60;99.90;;;;;;4935349;28;20496;-72
2022/09/21 06:04:35;;;;;;;5.38;2.42;;;7.70;99.90;;;;;;4951417;29;20066;-72
2022/09/21 06:07:01;;;;;;;2.60;1.52;;;7.80;99.90;;;;;;4959087;28;20034;-71
2022/09/21 06:09:27;;;;;;;7.03;3.15;;;7.70;99.90;;;;;;4970241;28;20037;-72
2022/09/21 06:11:53;;;;;;;3.38;2.00;;;7.80;99.90;;;;;;4965973;28;20044;-72
2022/09/21 06:14:23;;;;;;;4.10;2.25;;;7.70;99.90;;;;;;4965056;28;20114;-72
2022/09/21 06:16:50;;;;;;;2.90;2.33;;;7.80;99.90;;;;;;4959229;28;20032;-72
2022/09/21 06:19:15;;;;;;;2.85;1.70;;;7.80;99.90;;;;;;4951195;28;20039;-72
2022/09/21 06:21:41;;;;;;;2.53;1.85;;;7.90;99.90;;;;;;4955396;28;20035;-72
2022/09/21 06:24:08;;;;;;;11.70;2.72;;;8.00;99.90;;;;;;4955996;28;20038;-71
2022/09/21 06:26:34;;;;;;;2.78;1.38;;;7.90;99.90;;;;;;4958535;28;20438;-72
2022/09/21 06:29:00;;;;;;;3.05;1.80;;;8.00;99.90;;;;;;4957365;28;20573;-71
2022/09/21 06:31:26;;;;;;;2.85;1.90;;;8.10;99.90;;;;;;4954470;28;20039;-71
2022/09/21 06:33:52;;;;;;;2.97;2.20;;;8.20;99.90;;;;;;4954197;28;20114;-71
2022/09/21 06:36:18;;;;;;;4.30;2.30;;;8.30;99.90;;;;;;4965524;28;20113;-72
2022/09/21 06:38:44;;;;;;;10.23;2.25;;;8.40;99.90;;;;;;4968985;28;20058;-71
2022/09/21 06:41:10;;;;;;;6.05;2.60;;;8.50;99.90;;;;;;4959758;28;20023;-71
2022/09/21 06:43:35;;;;;;;6.00;2.97;;;8.60;99.90;;;;;;4969675;28;20024;-71
2022/09/21 06:46:02;;;;;;;7.60;1.77;;;8.50;99.90;;;;;;4966530;28;20140;-71
2022/09/21 06:48:31;;;;;;;5.60;2.53;;;8.60;99.90;;;;;;4974269;28;20042;-71
2022/09/21 06:50:58;;;;;;;6.00;2.50;;;8.70;99.90;;;;;;4961952;28;20503;-71
2022/09/21 06:53:25;;;;;;;3.25;2.30;;;8.70;99.90;;;;;;4955024;28;20472;-71
2022/09/21 06:55:51;;;;;;;3.42;2.33;;;8.70;99.90;;;;;;4964220;28;20024;-71
2022/09/21 06:58:18;;;;;;;7.55;3.10;;;8.70;99.90;;;;;;4955902;28;20047;-71
2022/09/21 07:00:45;;;;;;;3.45;1.90;;;8.80;99.90;;;;;;4954958;28;20027;-72
2022/09/21 07:03:14;;;;;;;3.40;2.22;;;8.80;99.90;;;;;;4955174;28;20039;-72
2022/09/21 07:05:43;;;;;;;3.00;2.13;;;9.00;99.90;;;;;;4961723;28;20035;-71
2022/09/21 07:08:09;;;;;;;7.43;2.40;;;8.80;99.90;;;;;;4950425;28;20051;-72
2022/09/21 07:10:35;;;;;;;4.85;2.33;;;8.80;99.90;;;;;;4965465;28;20078;-72
2022/09/21 07:13:04;;;;;;;4.38;1.98;;;8.90;99.90;;;;;;4964420;28;20039;-73
2022/09/21 07:15:31;;;;;;;3.95;2.20;;;9.00;99.90;;;;;;4966961;28;20505;-73
2022/09/21 07:17:57;;;;;;;6.88;2.65;;;9.10;99.90;;;;;;4956849;28;20043;-72
2022/09/21 07:20:23;;;;;;;9.10;3.75;;;9.20;99.90;;;;;;4962647;28;20070;-72
2022/09/21 07:22:49;;;;;;;3.13;1.98;;;9.30;99.90;;;;;;4965764;28;20045;-72
2022/09/21 07:25:15;;;;;;;4.72;2.15;;;9.20;99.90;;;;;;4963329;28;20039;-72
2022/09/21 07:27:41;;;;;;;3.05;1.90;;;9.30;99.90;;;;;;4970150;28;20387;-72
2022/09/21 07:30:08;;;;;;;8.73;1.55;;;9.40;99.90;;;;;;4964101;28;20066;-72
2022/09/21 07:32:35;;;;;;;4.18;2.47;;;9.50;99.90;;;;;;4956367;28;20042;-73
2022/09/21 07:35:01;;;;;;;2.83;1.77;;;9.60;99.90;;;;;;4969421;28;20027;-73
2022/09/21 07:37:27;;;;;;;3.20;1.88;;;9.70;99.90;;;;;;4968581;28;20113;-73
2022/09/21 07:39:53;;;;;;;3.95;2.03;;;9.80;99.90;;;;;;4954073;28;20487;-73
2022/09/21 07:42:21;;;;;;;4.70;2.80;;;9.80;99.90;;;;;;4965796;28;20038;-73
2022/09/21 07:44:49;;;;;;;5.63;1.67;;;9.90;99.90;;;;;;4953348;28;20091;-73
2022/09/21 07:47:15;;;;;;;3.33;2.22;;;10.00;99.90;;;;;;4954117;28;20039;-72
2022/09/21 07:49:41;;;;;;;6.80;2.83;;;10.10;99.90;;;;;;4958414;28;20035;-73
2022/09/21 07:52:08;;;;;;;5.82;2.70;;;10.20;99.90;;;;;;4958925;28;20047;-73
2022/09/21 07:54:35;;;;;;;3.58;1.55;;;10.30;99.90;;;;;;4952915;28;20034;-73
2022/09/21 07:59:46;;;;;;;5.15;2.05;;;10.60;99.90;;;;;;4970690;28;20392;-73
2022/09/21 08:02:12;;;;;;;4.72;2.00;;;10.70;99.90;;;;;;4960062;28;20030;-72
2022/09/21 08:04:37;;;;;;;2.75;1.73;;;10.80;99.90;;;;;;4955041;28;20031;-73
2022/09/21 08:07:03;;;;;;;8.77;2.25;;;10.90;99.90;;;;;;4967376;28;20118;-72
2022/09/21 08:09:29;;;;;;;4.55;2.22;;;11.00;99.90;;;;;;4963866;28;20035;-72
2022/09/21 08:11:55;;;;;;;8.35;2.00;;;11.10;99.90;;;;;;4957661;28;20023;-73
2022/09/21 08:14:21;;;;;;;3.05;1.80;;;11.30;99.90;;;;;;4948487;28;20038;-72
2022/09/21 08:16:47;;;;;;;4.68;2.10;;;11.30;99.90;;;;;;4973126;28;20035;-72
2022/09/21 08:19:16;;;;;;;3.20;1.80;;;11.30;99.90;;;;;;4954404;28;20031;-72
2022/09/21 08:21:42;;;;;;;2.33;1.45;;;11.40;99.90;;;;;;4965579;28;20041;-72
2022/09/21 08:24:09;;;;;;;3.65;1.80;;;11.50;99.90;;;;;;4971622;28;20039;-72
2022/09/21 08:26:35;;;;;;;2.72;1.63;;;11.60;99.90;;;;;;4958697;28;20031;-72
2022/09/21 08:29:01;;;;;;;2.13;1.27;;;11.70;99.90;;;;;;4967919;28;20491;-71
2022/09/21 08:31:29;;;;;;;5.38;2.53;;;11.70;99.90;;;;;;4964435;28;20034;-71
2022/09/21 08:33:59;;;;;;;2.53;1.58;;;11.90;99.90;;;;;;4968671;28;20117;-71
2022/09/21 08:36:25;;;;;;;3.72;1.33;;;12.00;99.90;;;;;;4950116;28;20039;-75
2022/09/21 08:38:51;;;;;;;2.70;1.55;;;12.10;99.90;;;;;;4952363;28;20027;-73
2022/09/21 08:41:46;;;;;;;2.83;1.75;;;12.00;99.90;;;;;;4953707;28;20086;-73
2022/09/21 08:44:24;;;;;;;2.97;1.67;;;12.10;99.90;;;;;;4957048;28;20105;-73
2022/09/21 08:47:04;;;;;;;4.53;2.00;;;12.30;99.90;;;;;;4961772;28;20030;-72
2022/09/21 08:49:34;;;;;;;3.72;1.88;;;12.40;99.90;;;;;;4956548;28;20082;-73
2022/09/21 08:52:05;;;;;;;2.45;1.20;;;12.40;99.90;;;;;;4966562;28;20043;-72
2022/09/21 08:54:58;;;;;;;1.77;1.08;;;12.50;99.90;;;;;;4959670;28;20027;-73
2022/09/21 08:57:29;;;;;;;4.78;1.30;;;12.60;99.90;;;;;;4967582;28;20138;-72
2022/09/21 08:59:56;;;;;;;3.53;1.15;;;12.70;99.90;;;;;;4955909;28;20038;-73
2022/09/21 09:02:54;;;;;;;1.48;0.93;;;12.80;99.90;;;;;;4965798;28;20039;-72
2022/09/21 09:05:40;;;;;;;3.47;1.85;;;12.90;99.90;;;;;;4963775;28;20042;-72
2022/09/21 09:08:21;;;;;;;11.43;2.22;;;13.00;99.90;;;;;;4961222;28;20044;-73
2022/09/21 09:11:19;;;;;;;1.42;0.90;;;13.20;99.90;;;;;;4962414;28;20398;-73
2022/09/21 09:14:04;;;;;;;2.80;0.82;;;13.40;99.90;;;;;;4957973;28;20119;-73
2022/09/21 09:17:04;;;;;;;1.65;1.13;;;13.50;99.90;;;;;;4960091;28;20494;-73
2022/09/21 09:20:06;;;;;;;4.88;1.35;;;13.70;99.90;;;;;;4960289;28;20030;-72
2022/09/21 09:22:41;;;;;;;2.55;1.23;;;13.80;99.90;;;;;;4963412;28;20047;-73
2022/09/21 09:25:31;;;;;;;3.47;1.10;;;13.80;99.90;;;;;;4955286;28;20113;-74
2022/09/21 09:28:04;;;;;;;1.00;0.70;;;13.90;99.90;;;;;;4960785;28;20040;-73
2022/09/21 09:30:33;;;;;;;2.58;1.35;;;14.20;99.90;;;;;;4948411;28;20141;-74
2022/09/21 09:33:21;;;;;;;2.35;1.30;;;14.40;99.90;;;;;;4962282;28;20027;-74
2022/09/21 09:36:04;;;;;;;2.92;1.02;;;14.50;99.90;;;;;;4967856;28;20096;-72
2022/09/21 09:38:38;;;;;;;2.15;0.98;;;14.50;99.90;;;;;;4954932;28;20035;-73
2022/09/21 09:41:12;;;;;;;2.13;0.80;;;14.70;99.90;;;;;;4952580;28;20039;-73
2022/09/21 09:44:14;;;;;;;3.67;0.90;;;14.60;99.90;;;;;;4966825;28;20034;-73
2022/09/21 09:46:58;;;;;;;;;;;14.80;99.90;;;;;;4957641;28;20579;-72
2022/09/21 09:49:39;;;;;;;2.00;0.80;;;14.90;99.90;;;;;;4959969;28;19915;-72
2022/09/21 09:52:10;;;;;;;1.77;0.90;;;15.10;99.90;;;;;;4957279;28;20031;-72
2022/09/21 09:54:36;;;;;;;0.82;0.57;;;14.90;99.90;;;;;;4957936;28;20162;-72
2022/09/21 09:57:03;;;;;;;1.67;0.82;;;15.20;99.90;;;;;;4956655;28;20122;-72
2022/09/21 09:59:43;;;;;;;3.33;0.98;;;15.20;99.90;;;;;;4954431;28;20035;-72
2022/09/21 10:02:24;;;;;;;2.38;0.77;;;15.30;99.90;;;;;;4967635;28;20403;-71
2022/09/21 10:05:04;;;;;;;;;;;15.30;99.90;;;;;;4954266;28;20042;-73
2022/09/21 10:07:47;;;;;;;0.68;0.50;;;15.40;99.90;;;;;;4963526;28;19960;-74
2022/09/21 10:10:28;;;;;;;0.73;0.60;;;15.80;99.90;;;;;;4959153;28;20058;-67
2022/09/21 10:13:25;;;;;;;1.73;0.75;;;16.00;99.90;;;;;;4962581;28;20734;-67
2022/09/21 10:16:05;;;;;;;8.15;1.45;;;16.20;99.90;;;;;;4967951;28;20035;-71
2022/09/21 10:18:38;;;;;;;0.75;0.55;;;16.40;99.90;;;;;;4950819;28;20492;-73
2022/09/21 10:21:22;;;;;;;1.60;0.55;;;16.30;99.90;;;;;;4956242;28;20041;-73
2022/09/21 10:24:29;;;;;;;0.73;0.63;;;16.40;99.90;;;;;;4977760;28;20023;-72
2022/09/21 10:27:14;;;;;;;1.60;0.63;;;16.70;99.90;;;;;;4954065;28;20057;-71
2022/09/21 10:29:47;;;;;;;1.80;0.60;;;16.90;99.90;;;;;;4962391;28;20034;-72
2022/09/21 10:32:12;;;;;;;1.85;0.73;;;16.90;99.90;;;;;;4962332;28;20036;-73
2022/09/21 10:34:40;;;;;;;3.28;1.13;;;17.00;99.90;;;;;;4957009;28;20070;-73
2022/09/21 10:37:36;;;;;;;2.72;0.75;;;16.90;99.90;;;;;;4955304;28;20034;-72
2022/09/21 10:40:04;;;;;;;2.63;1.30;;;16.90;99.90;;;;;;4948712;28;20133;-72
2022/09/21 10:42:36;;;;;;;3.80;0.85;;;16.90;99.90;;;;;;4934108;29;20045;-73
2022/09/21 10:45:28;;;;;;;7.57;0.73;;;17.00;99.90;;;;;;4967103;28;20154;-73
2022/09/21 10:48:07;;;;;;;1.55;0.63;;;17.40;99.90;;;;;;4958041;28;20376;-73
2022/09/21 10:50:45;;;;;;;1.52;0.40;;;17.80;99.90;;;;;;4967596;28;20061;-73
2022/09/21 10:53:29;;;;;;;2.08;0.70;;;18.00;99.90;;;;;;4954610;28;20039;-72
2022/09/21 10:56:07;;;;;;;0.95;0.38;;;17.60;99.90;;;;;;4969605;28;20034;-72
2022/09/21 10:58:34;;;;;;;1.13;0.40;;;18.00;99.90;;;;;;4959005;28;20636;-72
2022/09/21 11:01:12;;;;;;;0.40;0.30;;;17.20;99.60;;;;;;4966309;28;20369;-72
2022/09/21 11:03:56;;;;;;;0.73;0.40;;;17.90;99.90;;;;;;4959139;28;20046;-73
2022/09/21 11:06:40;;;;;;;1.05;0.40;;;18.30;99.60;;;;;;4965962;28;20077;-73
2022/09/21 11:09:13;;;;;;;1.02;0.30;;;19.00;97.60;;;;;;4964760;28;20105;-72
2022/09/21 11:11:58;;;;;;;1.15;0.30;;;19.30;97.50;;;;;;4955724;28;20517;-72
2022/09/21 11:15:00;;;;;;;0.50;0.22;;;19.20;96.40;;;;;;4958706;28;20081;-73
2022/09/21 11:17:43;;;;;;;2.67;0.68;;;19.20;97.40;;;;;;4955719;28;20075;-73
2022/09/21 11:20:30;;;;;;;0.90;0.15;;;18.50;98.00;;;;;;4952759;28;20028;-72
2022/09/21 11:23:04;;;;;;;2.53;0.63;;;18.10;98.20;;;;;;4952163;28;20039;-71
2022/09/21 11:26:02;;;;;;;0.55;0.30;;;18.20;98.60;;;;;;4965864;28;20034;-72
2022/09/21 11:28:48;;;;;;;1.05;0.50;;;18.80;98.30;;;;;;4958363;28;20093;-73
2022/09/21 11:31:19;;;;;;;3.70;0.20;;;19.40;96.90;;;;;;4915922;28;20101;-73
2022/09/21 11:34:31;;;;;;;2.40;0.25;;;19.80;95.50;;;;;;4963070;28;20038;-73
2022/09/21 11:37:32;;;;;;;0.28;0.28;;;19.60;95.50;;;;;;4969960;28;20038;-70
2022/09/21 11:40:14;;;;;;;0.30;0.30;;;18.40;95.90;;;;;;4957164;28;20042;-72
2022/09/21 11:42:50;;;;;;;0.68;0.40;;;18.70;97.10;;;;;;4958445;28;20039;-71
2022/09/21 11:45:57;;;;;;;0.50;0.30;;;18.80;97.40;;;;;;4957284;28;20066;-72
2022/09/21 11:48:42;;;;;;;0.60;0.32;;;18.90;96.90;;;;;;4962008;28;20462;-72
2022/09/21 11:51:19;;;;;;;0.75;0.43;;;18.90;96.60;;;;;;4952661;28;20027;-72
2022/09/21 11:54:19;;;;;;;0.38;0.28;;;18.50;97.20;;;;;;4963614;28;20031;-72
2022/09/21 11:57:19;;;;;;;4.47;0.35;;;18.80;97.20;;;;;;4958011;28;20034;-72
2022/09/21 12:00:14;;;;;;;1.52;0.30;;;18.30;95.50;;;;;;4964125;28;20042;-72
2022/09/21 12:03:43;;;;;;;1.85;0.45;;;18.20;96.30;;;;;;4968267;28;20059;-72
2022/09/21 12:06:36;;;;;;;0.38;0.20;;;18.80;95.90;;;;;;4897930;29;20036;-72
2022/09/21 12:09:22;;;;;;;5.15;1.27;;;18.70;96.00;;;;;;4956761;28;20081;-73
2022/09/21 12:11:58;;;;;;;0.20;0.20;;;19.90;95.30;;;;;;4958861;28;20125;-73
2022/09/21 12:14:55;;;;;;;1.73;0.77;;;20.50;94.90;;;;;;4959303;28;20581;-73
2022/09/21 12:17:57;;;;;;;0.57;0.20;;;20.70;93.70;;;;;;4955435;28;20094;-72
2022/09/21 12:20:49;;;;;;;1.23;0.50;;;21.00;92.50;;;;;;4953971;28;20404;-72
2022/09/21 12:23:27;;;;;;;0.50;0.35;;;20.30;92.90;;;;;;4951700;28;20048;-73
2022/09/21 12:25:57;;;;;;;2.13;0.32;;;19.70;93.40;;;;;;4958520;28;20146;-73
2022/09/21 12:28:52;;;;;;;9.00;1.20;;;20.20;93.40;;;;;;4960616;28;20066;-73
2022/09/21 12:31:25;;;;;;;1.65;0.40;;;20.50;93.90;;;;;;4960054;28;20031;-73
2022/09/21 12:33:57;;;;;;;1.67;0.68;;;20.60;94.20;;;;;;4964849;28;20419;-73
2022/09/21 12:36:41;;;;;;;4.15;0.63;;;21.20;91.40;;;;;;4950831;28;20043;-73
2022/09/21 12:39:26;;;;;;;0.50;0.22;;;22.30;91.50;;;;;;4967223;28;20027;-73
2022/09/21 12:42:37;;;;;;;2.97;1.10;;;22.10;88.20;;;;;;4968026;28;20038;-73
2022/09/21 12:45:12;;;;;;;0.65;0.30;;;21.40;90.30;;;;;;4934898;28;20047;-73
2022/09/21 12:48:02;;;;;;;0.40;0.30;;;22.10;89.00;;;;;;4963462;28;20487;-73
2022/09/21 12:50:47;;;;;;;0.40;0.23;;;22.10;90.00;;;;;;4963905;28;20085;-73
2022/09/21 12:53:21;;;;;;;5.15;1.10;;;21.40;90.00;;;;;;4961668;28;20353;-73
2022/09/21 12:56:05;;;;;;;0.32;0.20;;;19.50;90.80;;;;;;4971212;28;20079;-72
2022/09/21 12:58:58;;;;;;;1.45;0.30;;;19.10;93.00;;;;;;4960870;28;20427;-72
2022/09/21 13:01:49;;;;;;;1.17;0.50;;;20.10;91.70;;;;;;4950429;28;20070;-73
2022/09/21 13:04:37;;;;;;;0.90;0.40;;;20.90;90.20;;;;;;4960883;28;20031;-73
2022/09/21 13:07:39;;;;;;;1.65;0.20;;;21.70;88.40;;;;;;4968502;28;20058;-73
2022/09/21 13:10:58;;;;;;;1.05;0.52;;;21.30;88.00;;;;;;4978934;28;20030;-72
2022/09/21 13:13:35;;;;;;;8.55;0.38;;;22.30;90.30;;;;;;4958358;28;20035;-72
2022/09/21 13:16:04;;;;;;;0.30;0.20;;;22.40;85.30;;;;;;4946959;28;20081;-72
2022/09/21 13:18:39;;;;;;;0.40;0.28;;;22.30;81.20;;;;;;4962744;28;20146;-72
2022/09/21 13:21:22;;;;;;;1.00;0.45;;;23.70;80.50;;;;;;4952851;28;20102;-73
2022/09/21 13:24:02;;;;;;;1.65;0.63;;;23.60;78.10;;;;;;4962906;28;20562;-73
2022/09/21 13:26:50;;;;;;;0.93;0.57;;;23.20;79.10;;;;;;4951645;28;20090;-72
2022/09/21 13:29:18;;;;;;;0.52;0.17;;;22.60;82.20;;;;;;4969757;28;20034;-72
2022/09/21 13:31:59;;;;;;;0.10;0.10;;;23.10;77.60;;;;;;4970112;28;20086;-72
2022/09/21 13:34:34;;;;;;;2.50;0.30;;;24.30;75.90;;;;;;4960121;28;20069;-72
2022/09/21 13:37:15;;;;;;;0.17;0.15;;;25.40;74.30;;;;;;4969162;28;20071;-72
2022/09/21 13:39:56;;;;;;;0.95;0.20;;;23.50;72.70;;;;;;4959152;28;20365;-72